sensor_id;sensor_type;location;lat;lon;timestamp;temperature;humidity
45108;DHT22;30869;51.188;6.556;2022-08-03T03:25:17;21.50;98.20
45108;DHT22;30869;51.188;6.556;2022-08-03T03:27:50;22.00;98.60
45108;DHT22;30869;51.188;6.556;2022-08-03T03:30:15;22.30;99.30
45108;DHT22;30869;51.188;6.556;2022-08-03T03:32:44;22.50;99.00
45108;DHT22;30869;51.188;6.556;2022-08-03T03:35:19;22.50;98.00
45108;DHT22;30869;51.188;6.556;2022-08-03T03:37:45;22.40;96.60
45108;DHT22;30869;51.188;6.556;2022-08-03T03:40:14;22.30;96.50
45108;DHT22;30869;51.188;6.556;2022-08-03T07:39:03;26.60;92.80
45108;DHT22;30869;51.188;6.556;2022-08-03T07:41:46;26.60;93.30
45108;DHT22;30869;51.188;6.556;2022-08-03T07:44:30;26.90;92.90
45108;DHT22;30869;51.188;6.556;2022-08-03T07:46:56;26.90;91.90
45108;DHT22;30869;51.188;6.556;2022-08-03T07:49:22;27.10;91.60
45108;DHT22;30869;51.188;6.556;2022-08-03T07:51:47;27.10;91.20
45108;DHT22;30869;51.188;6.556;2022-08-03T07:54:36;27.00;91.10
45108;DHT22;30869;51.188;6.556;2022-08-03T07:57:01;27.00;91.60
45108;DHT22;30869;51.188;6.556;2022-08-03T07:59:27;27.00;91.00
45108;DHT22;30869;51.188;6.556;2022-08-03T08:01:53;27.00;90.90
45108;DHT22;30869;51.188;6.556;2022-08-03T08:09:29;27.30;90.80
45108;DHT22;30869;51.188;6.556;2022-08-03T08:11:58;27.50;90.20
45108;DHT22;30869;51.188;6.556;2022-08-03T08:14:27;27.50;91.00
45108;DHT22;30869;51.188;6.556;2022-08-03T08:17:06;27.30;90.40
45108;DHT22;30869;51.188;6.556;2022-08-03T08:19:34;27.10;90.50
45108;DHT22;30869;51.188;6.556;2022-08-03T08:22:10;27.10;91.30
45108;DHT22;30869;51.188;6.556;2022-08-03T08:24:36;27.40;90.80
45108;DHT22;30869;51.188;6.556;2022-08-03T08:27:02;27.20;90.20
45108;DHT22;30869;51.188;6.556;2022-08-03T08:29:28;27.10;91.20
45108;DHT22;30869;51.188;6.556;2022-08-03T08:31:53;27.40;91.00
45108;DHT22;30869;51.188;6.556;2022-08-03T08:34:19;27.40;90.30
45108;DHT22;30869;51.188;6.556;2022-08-03T08:36:44;27.50;89.80
45108;DHT22;30869;51.188;6.556;2022-08-03T08:39:10;27.60;90.80
45108;DHT22;30869;51.188;6.556;2022-08-03T08:41:37;27.40;88.90
45108;DHT22;30869;51.188;6.556;2022-08-03T08:44:08;27.40;90.30
45108;DHT22;30869;51.188;6.556;2022-08-03T08:46:36;27.80;89.70
45108;DHT22;30869;51.188;6.556;2022-08-03T08:49:03;27.50;89.30
45108;DHT22;30869;51.188;6.556;2022-08-03T08:51:33;27.50;89.60
45108;DHT22;30869;51.188;6.556;2022-08-03T08:54:02;27.50;89.90
45108;DHT22;30869;51.188;6.556;2022-08-03T08:56:29;27.50;89.30
45108;DHT22;30869;51.188;6.556;2022-08-03T08:58:58;27.60;89.30
45108;DHT22;30869;51.188;6.556;2022-08-03T09:01:24;27.80;88.70
45108;DHT22;30869;51.188;6.556;2022-08-03T09:03:53;27.80;89.00
45108;DHT22;30869;51.188;6.556;2022-08-03T09:06:22;27.90;88.00
45108;DHT22;30869;51.188;6.556;2022-08-03T09:09:07;27.80;87.70
45108;DHT22;30869;51.188;6.556;2022-08-03T09:11:33;27.50;87.70
45108;DHT22;30869;51.188;6.556;2022-08-03T09:14:02;27.80;87.80
45108;DHT22;30869;51.188;6.556;2022-08-03T09:16:28;27.70;87.50
45108;DHT22;30869;51.188;6.556;2022-08-03T09:18:54;27.50;87.80
45108;DHT22;30869;51.188;6.556;2022-08-03T09:21:33;27.50;89.00
45108;DHT22;30869;51.188;6.556;2022-08-03T09:24:02;27.60;87.80
45108;DHT22;30869;51.188;6.556;2022-08-03T09:26:29;28.00;88.50
45108;DHT22;30869;51.188;6.556;2022-08-03T09:28:58;27.70;86.90
45108;DHT22;30869;51.188;6.556;2022-08-03T09:32:26;27.70;87.30
45108;DHT22;30869;51.188;6.556;2022-08-03T09:35:13;27.40;87.60
45108;DHT22;30869;51.188;6.556;2022-08-03T09:38:20;27.70;86.90
45108;DHT22;30869;51.188;6.556;2022-08-03T09:40:56;27.70;86.80
45108;DHT22;30869;51.188;6.556;2022-08-03T09:44:06;28.10;88.10
45108;DHT22;30869;51.188;6.556;2022-08-03T09:46:52;27.90;86.50
45108;DHT22;30869;51.188;6.556;2022-08-03T09:49:21;27.80;86.50
45108;DHT22;30869;51.188;6.556;2022-08-03T09:51:53;27.70;86.80
45108;DHT22;30869;51.188;6.556;2022-08-03T09:54:31;27.60;87.20
45108;DHT22;30869;51.188;6.556;2022-08-03T09:57:01;27.60;86.20
45108;DHT22;30869;51.188;6.556;2022-08-03T09:59:49;27.70;86.10
45108;DHT22;30869;51.188;6.556;2022-08-03T10:02:31;27.50;87.20
45108;DHT22;30869;51.188;6.556;2022-08-03T10:05:09;27.70;85.30
45108;DHT22;30869;51.188;6.556;2022-08-03T10:07:56;27.80;86.20
45108;DHT22;30869;51.188;6.556;2022-08-03T10:14:10;27.70;84.40
45108;DHT22;30869;51.188;6.556;2022-08-03T10:16:51;27.50;85.70
45108;DHT22;30869;51.188;6.556;2022-08-03T10:19:24;27.60;86.80
45108;DHT22;30869;51.188;6.556;2022-08-03T10:22:02;27.60;85.50
45108;DHT22;30869;51.188;6.556;2022-08-03T10:25:27;27.60;86.40
45108;DHT22;30869;51.188;6.556;2022-08-03T10:27:38;27.60;86.10
45108;DHT22;30869;51.188;6.556;2022-08-03T10:31:12;27.60;86.00
45108;DHT22;30869;51.188;6.556;2022-08-03T10:33:53;27.90;85.80
45108;DHT22;30869;51.188;6.556;2022-08-03T10:36:48;28.10;85.60
45108;DHT22;30869;51.188;6.556;2022-08-03T10:39:28;27.80;85.90
45108;DHT22;30869;51.188;6.556;2022-08-03T10:42:09;27.80;85.60
45108;DHT22;30869;51.188;6.556;2022-08-03T10:44:41;27.50;85.60
45108;DHT22;30869;51.188;6.556;2022-08-03T10:47:08;27.90;85.90
45108;DHT22;30869;51.188;6.556;2022-08-03T10:50:04;28.10;84.30
45108;DHT22;30869;51.188;6.556;2022-08-03T10:53:09;28.20;83.70
45108;DHT22;30869;51.188;6.556;2022-08-03T10:55:50;28.30;84.80
45108;DHT22;30869;51.188;6.556;2022-08-03T10:59:07;28.50;83.20
45108;DHT22;30869;51.188;6.556;2022-08-03T11:02:14;28.50;83.30
45108;DHT22;30869;51.188;6.556;2022-08-03T11:04:42;28.50;81.10
45108;DHT22;30869;51.188;6.556;2022-08-03T11:07:27;28.20;83.10
45108;DHT22;30869;51.188;6.556;2022-08-03T11:09:55;28.00;83.60
45108;DHT22;30869;51.188;6.556;2022-08-03T11:12:28;28.20;81.80
45108;DHT22;30869;51.188;6.556;2022-08-03T11:15:03;28.10;83.10
45108;DHT22;30869;51.188;6.556;2022-08-03T11:17:35;28.30;81.00
45108;DHT22;30869;51.188;6.556;2022-08-03T11:20:03;28.20;82.00
45108;DHT22;30869;51.188;6.556;2022-08-03T11:22:49;28.20;81.50
45108;DHT22;30869;51.188;6.556;2022-08-03T11:25:18;28.20;83.40
45108;DHT22;30869;51.188;6.556;2022-08-03T11:27:44;28.30;81.40
45108;DHT22;30869;51.188;6.556;2022-08-03T11:40:48;28.50;80.30
45108;DHT22;30869;51.188;6.556;2022-08-03T11:46:03;28.50;81.20
45108;DHT22;30869;51.188;6.556;2022-08-03T11:48:40;28.60;80.60
45108;DHT22;30869;51.188;6.556;2022-08-03T11:51:26;28.50;82.50
45108;DHT22;30869;51.188;6.556;2022-08-03T11:56:22;28.30;82.50
45108;DHT22;30869;51.188;6.556;2022-08-03T11:58:50;28.40;82.80
45108;DHT22;30869;51.188;6.556;2022-08-03T12:01:20;28.20;83.00
45108;DHT22;30869;51.188;6.556;2022-08-03T12:03:46;28.30;81.10
45108;DHT22;30869;51.188;6.556;2022-08-03T12:06:14;28.50;81.20
45108;DHT22;30869;51.188;6.556;2022-08-03T12:08:41;28.60;82.00
45108;DHT22;30869;51.188;6.556;2022-08-03T12:11:09;28.60;82.00
45108;DHT22;30869;51.188;6.556;2022-08-03T12:13:47;28.40;83.40
45108;DHT22;30869;51.188;6.556;2022-08-03T12:16:21;28.10;81.90
45108;DHT22;30869;51.188;6.556;2022-08-03T12:18:59;28.50;82.40
45108;DHT22;30869;51.188;6.556;2022-08-03T12:21:26;28.10;84.20
45108;DHT22;30869;51.188;6.556;2022-08-03T12:24:03;27.80;84.60
45108;DHT22;30869;51.188;6.556;2022-08-03T12:26:29;27.60;84.90
45108;DHT22;30869;51.188;6.556;2022-08-03T12:29:06;27.80;82.80
45108;DHT22;30869;51.188;6.556;2022-08-03T12:31:31;28.10;80.60
45108;DHT22;30869;51.188;6.556;2022-08-03T12:34:00;28.40;79.00
45108;DHT22;30869;51.188;6.556;2022-08-03T12:36:32;28.80;79.20
45108;DHT22;30869;51.188;6.556;2022-08-03T12:39:04;28.70;77.20
45108;DHT22;30869;51.188;6.556;2022-08-03T12:41:36;29.40;80.10
45108;DHT22;30869;51.188;6.556;2022-08-03T12:44:04;28.90;80.40
45108;DHT22;30869;51.188;6.556;2022-08-03T12:46:35;29.20;77.90
45108;DHT22;30869;51.188;6.556;2022-08-03T12:49:14;29.10;78.20
45108;DHT22;30869;51.188;6.556;2022-08-03T12:54:07;28.90;78.20
45108;DHT22;30869;51.188;6.556;2022-08-03T12:56:33;29.20;77.90
45108;DHT22;30869;51.188;6.556;2022-08-03T12:58:59;29.30;78.70
45108;DHT22;30869;51.188;6.556;2022-08-03T13:01:25;29.00;77.90
45108;DHT22;30869;51.188;6.556;2022-08-03T13:04:00;29.00;79.70
45108;DHT22;30869;51.188;6.556;2022-08-03T13:06:26;29.20;75.30
45108;DHT22;30869;51.188;6.556;2022-08-03T13:09:04;29.60;74.90
45108;DHT22;30869;51.188;6.556;2022-08-03T13:11:30;29.50;78.90
45108;DHT22;30869;51.188;6.556;2022-08-03T13:13:56;29.40;79.20
45108;DHT22;30869;51.188;6.556;2022-08-03T13:16:21;29.40;77.10
45108;DHT22;30869;51.188;6.556;2022-08-03T13:18:48;29.30;80.10
45108;DHT22;30869;51.188;6.556;2022-08-03T13:21:15;29.90;76.60
45108;DHT22;30869;51.188;6.556;2022-08-03T13:23:41;29.90;79.30
45108;DHT22;30869;51.188;6.556;2022-08-03T13:26:08;29.60;74.60
45108;DHT22;30869;51.188;6.556;2022-08-03T13:28:34;29.50;76.00
45108;DHT22;30869;51.188;6.556;2022-08-03T13:31:03;29.80;79.80
45108;DHT22;30869;51.188;6.556;2022-08-03T13:33:29;29.50;79.30
45108;DHT22;30869;51.188;6.556;2022-08-03T13:36:00;29.50;78.60
45108;DHT22;30869;51.188;6.556;2022-08-03T13:38:26;29.40;77.90
45108;DHT22;30869;51.188;6.556;2022-08-03T13:40:52;29.70;74.30
45108;DHT22;30869;51.188;6.556;2022-08-03T13:43:19;29.80;79.40
45108;DHT22;30869;51.188;6.556;2022-08-03T13:45:45;29.90;75.20
45108;DHT22;30869;51.188;6.556;2022-08-03T13:48:11;30.20;70.90
45108;DHT22;30869;51.188;6.556;2022-08-03T13:50:36;29.90;76.40
45108;DHT22;30869;51.188;6.556;2022-08-03T13:53:02;29.70;78.40
45108;DHT22;30869;51.188;6.556;2022-08-03T13:55:28;29.50;74.30
45108;DHT22;30869;51.188;6.556;2022-08-03T13:57:54;29.70;72.00
45108;DHT22;30869;51.188;6.556;2022-08-03T14:00:19;29.60;77.40
45108;DHT22;30869;51.188;6.556;2022-08-03T14:02:48;29.40;72.20
45108;DHT22;30869;51.188;6.556;2022-08-03T14:05:14;29.30;74.20
45108;DHT22;30869;51.188;6.556;2022-08-03T14:07:39;29.30;80.30
45108;DHT22;30869;51.188;6.556;2022-08-03T14:10:05;29.40;76.20
45108;DHT22;30869;51.188;6.556;2022-08-03T14:12:31;29.50;78.70
45108;DHT22;30869;51.188;6.556;2022-08-03T14:14:57;29.60;68.90
45108;DHT22;30869;51.188;6.556;2022-08-03T14:17:22;29.90;69.60
45108;DHT22;30869;51.188;6.556;2022-08-03T14:19:48;30.10;71.20
45108;DHT22;30869;51.188;6.556;2022-08-03T14:22:13;30.20;69.90
45108;DHT22;30869;51.188;6.556;2022-08-03T14:24:39;29.90;75.90
45108;DHT22;30869;51.188;6.556;2022-08-03T14:27:05;30.00;68.00
45108;DHT22;30869;51.188;6.556;2022-08-03T14:29:30;29.90;69.20
45108;DHT22;30869;51.188;6.556;2022-08-03T14:31:56;29.80;69.80
45108;DHT22;30869;51.188;6.556;2022-08-03T14:34:27;29.70;68.70
45108;DHT22;30869;51.188;6.556;2022-08-03T14:36:57;29.60;68.80
45108;DHT22;30869;51.188;6.556;2022-08-03T14:39:23;29.60;67.70
45108;DHT22;30869;51.188;6.556;2022-08-03T14:41:49;29.30;67.60
45108;DHT22;30869;51.188;6.556;2022-08-03T14:44:14;29.40;68.00
45108;DHT22;30869;51.188;6.556;2022-08-03T14:46:40;29.40;69.10
45108;DHT22;30869;51.188;6.556;2022-08-03T14:49:06;29.40;67.70
45108;DHT22;30869;51.188;6.556;2022-08-03T14:51:31;29.40;67.30
45108;DHT22;30869;51.188;6.556;2022-08-03T14:53:57;29.40;67.60
45108;DHT22;30869;51.188;6.556;2022-08-03T14:56:23;29.40;68.10
45108;DHT22;30869;51.188;6.556;2022-08-03T14:58:48;29.40;68.30
45108;DHT22;30869;51.188;6.556;2022-08-03T15:01:14;29.40;69.90
45108;DHT22;30869;51.188;6.556;2022-08-03T15:03:40;29.50;69.90
45108;DHT22;30869;51.188;6.556;2022-08-03T15:06:06;29.50;70.80
45108;DHT22;30869;51.188;6.556;2022-08-03T15:09:01;29.40;68.70
45108;DHT22;30869;51.188;6.556;2022-08-03T15:11:36;29.30;69.70
45108;DHT22;30869;51.188;6.556;2022-08-03T15:14:03;29.50;69.60
45108;DHT22;30869;51.188;6.556;2022-08-03T15:16:28;29.60;69.80
45108;DHT22;30869;51.188;6.556;2022-08-03T15:18:54;29.60;70.50
45108;DHT22;30869;51.188;6.556;2022-08-03T15:28:43;29.90;71.10
45108;DHT22;30869;51.188;6.556;2022-08-03T15:35:02;30.20;69.30
45108;DHT22;30869;51.188;6.556;2022-08-03T15:37:43;30.00;68.90
45108;DHT22;30869;51.188;6.556;2022-08-03T15:40:44;30.10;69.20
45108;DHT22;30869;51.188;6.556;2022-08-03T15:44:26;30.10;68.90
45108;DHT22;30869;51.188;6.556;2022-08-03T15:47:06;30.20;68.50
45108;DHT22;30869;51.188;6.556;2022-08-03T15:53:06;30.30;68.30
45108;DHT22;30869;51.188;6.556;2022-08-03T15:55:35;30.40;69.30
45108;DHT22;30869;51.188;6.556;2022-08-03T15:58:08;30.40;68.50
45108;DHT22;30869;51.188;6.556;2022-08-03T16:00:38;30.40;68.10
45108;DHT22;30869;51.188;6.556;2022-08-03T16:03:04;30.30;68.70
45108;DHT22;30869;51.188;6.556;2022-08-03T16:05:36;30.20;68.00
45108;DHT22;30869;51.188;6.556;2022-08-03T16:08:02;30.20;68.30
45108;DHT22;30869;51.188;6.556;2022-08-03T16:10:28;30.20;68.70
45108;DHT22;30869;51.188;6.556;2022-08-03T16:12:55;30.20;69.00
45108;DHT22;30869;51.188;6.556;2022-08-03T16:15:21;30.10;69.00
45108;DHT22;30869;51.188;6.556;2022-08-03T16:17:50;30.20;70.00
45108;DHT22;30869;51.188;6.556;2022-08-03T16:20:27;30.10;68.50
45108;DHT22;30869;51.188;6.556;2022-08-03T16:22:56;30.10;68.90
45108;DHT22;30869;51.188;6.556;2022-08-03T16:25:21;30.20;69.50
45108;DHT22;30869;51.188;6.556;2022-08-03T16:27:47;30.00;70.20
45108;DHT22;30869;51.188;6.556;2022-08-03T16:30:13;30.10;69.50
45108;DHT22;30869;51.188;6.556;2022-08-03T16:32:41;30.20;69.70
45108;DHT22;30869;51.188;6.556;2022-08-03T16:35:07;30.30;70.50
45108;DHT22;30869;51.188;6.556;2022-08-03T16:37:33;30.20;70.40
45108;DHT22;30869;51.188;6.556;2022-08-03T16:39:59;30.20;69.50
45108;DHT22;30869;51.188;6.556;2022-08-03T16:42:24;30.20;70.60
45108;DHT22;30869;51.188;6.556;2022-08-03T16:45:09;30.20;69.50
45108;DHT22;30869;51.188;6.556;2022-08-03T16:47:38;30.20;70.40
45108;DHT22;30869;51.188;6.556;2022-08-03T16:50:05;30.10;69.70
45108;DHT22;30869;51.188;6.556;2022-08-03T16:52:31;30.20;70.00
45108;DHT22;30869;51.188;6.556;2022-08-03T16:54:59;30.20;69.80
45108;DHT22;30869;51.188;6.556;2022-08-03T16:57:25;30.30;69.50
45108;DHT22;30869;51.188;6.556;2022-08-03T16:59:53;30.30;70.00
45108;DHT22;30869;51.188;6.556;2022-08-03T17:02:31;30.30;71.00
45108;DHT22;30869;51.188;6.556;2022-08-03T17:05:10;30.30;69.40
45108;DHT22;30869;51.188;6.556;2022-08-03T17:07:37;30.30;69.80
45108;DHT22;30869;51.188;6.556;2022-08-03T17:10:15;30.40;70.60
45108;DHT22;30869;51.188;6.556;2022-08-03T17:13:29;30.30;71.30
45108;DHT22;30869;51.188;6.556;2022-08-03T17:16:11;30.20;70.70
45108;DHT22;30869;51.188;6.556;2022-08-03T17:18:58;30.30;71.40
45108;DHT22;30869;51.188;6.556;2022-08-03T17:21:44;30.30;69.80
45108;DHT22;30869;51.188;6.556;2022-08-03T17:24:36;30.20;70.90
45108;DHT22;30869;51.188;6.556;2022-08-03T17:27:09;30.10;71.10
45108;DHT22;30869;51.188;6.556;2022-08-03T17:29:38;30.10;70.80
45108;DHT22;30869;51.188;6.556;2022-08-03T17:32:05;30.10;71.30
45108;DHT22;30869;51.188;6.556;2022-08-03T17:34:40;30.00;71.70
45108;DHT22;30869;51.188;6.556;2022-08-03T17:37:07;29.90;71.00
45108;DHT22;30869;51.188;6.556;2022-08-03T17:39:36;29.90;71.80
45108;DHT22;30869;51.188;6.556;2022-08-03T17:42:09;29.90;71.60
45108;DHT22;30869;51.188;6.556;2022-08-03T17:44:38;30.00;72.00
45108;DHT22;30869;51.188;6.556;2022-08-03T17:47:07;29.80;71.80
45108;DHT22;30869;51.188;6.556;2022-08-03T17:49:36;29.80;71.80
45108;DHT22;30869;51.188;6.556;2022-08-03T17:52:16;29.80;72.20
45108;DHT22;30869;51.188;6.556;2022-08-03T17:57:56;29.70;72.30
45108;DHT22;30869;51.188;6.556;2022-08-03T18:00:27;29.60;73.70
45108;DHT22;30869;51.188;6.556;2022-08-03T18:10:42;29.60;72.80
45108;DHT22;30869;51.188;6.556;2022-08-03T18:13:32;29.50;73.20
45108;DHT22;30869;51.188;6.556;2022-08-03T18:16:23;29.40;73.60
45108;DHT22;30869;51.188;6.556;2022-08-03T18:19:04;29.40;74.30
45108;DHT22;30869;51.188;6.556;2022-08-03T18:21:43;29.30;74.90
45108;DHT22;30869;51.188;6.556;2022-08-03T18:24:25;29.30;74.80
45108;DHT22;30869;51.188;6.556;2022-08-03T18:27:03;29.30;75.30
45108;DHT22;30869;51.188;6.556;2022-08-03T18:30:17;29.40;75.80
45108;DHT22;30869;51.188;6.556;2022-08-03T18:32:52;29.40;75.00
45108;DHT22;30869;51.188;6.556;2022-08-03T18:35:30;29.30;74.60
45108;DHT22;30869;51.188;6.556;2022-08-03T18:38:10;29.40;76.80
45108;DHT22;30869;51.188;6.556;2022-08-03T18:40:42;29.20;75.70
45108;DHT22;30869;51.188;6.556;2022-08-03T18:43:32;29.20;76.20
45108;DHT22;30869;51.188;6.556;2022-08-03T18:51:46;29.20;77.50
45108;DHT22;30869;51.188;6.556;2022-08-03T18:54:29;28.90;77.70
45108;DHT22;30869;51.188;6.556;2022-08-03T18:56:58;29.10;77.80
45108;DHT22;30869;51.188;6.556;2022-08-03T18:59:51;29.10;78.20
45108;DHT22;30869;51.188;6.556;2022-08-03T19:05:18;29.10;78.30
45108;DHT22;30869;51.188;6.556;2022-08-03T19:07:54;29.10;78.50
45108;DHT22;30869;51.188;6.556;2022-08-03T19:10:28;29.20;78.80
45108;DHT22;30869;51.188;6.556;2022-08-03T19:12:57;29.10;79.00
45108;DHT22;30869;51.188;6.556;2022-08-03T19:15:28;29.00;79.00
45108;DHT22;30869;51.188;6.556;2022-08-03T19:17:57;29.00;79.20
45108;DHT22;30869;51.188;6.556;2022-08-03T19:20:30;29.10;80.00
45108;DHT22;30869;51.188;6.556;2022-08-03T19:23:00;29.00;79.30
45108;DHT22;30869;51.188;6.556;2022-08-03T19:25:26;29.00;79.70
45108;DHT22;30869;51.188;6.556;2022-08-03T19:28:18;29.00;80.00
45108;DHT22;30869;51.188;6.556;2022-08-03T19:30:49;28.80;77.80
45108;DHT22;30869;51.188;6.556;2022-08-03T19:33:29;28.70;80.10
45108;DHT22;30869;51.188;6.556;2022-08-03T19:36:06;28.50;79.00
45108;DHT22;30869;51.188;6.556;2022-08-03T19:38:41;28.40;80.80
45108;DHT22;30869;51.188;6.556;2022-08-03T19:41:19;28.50;81.70
45108;DHT22;30869;51.188;6.556;2022-08-03T19:44:03;28.50;82.00
45108;DHT22;30869;51.188;6.556;2022-08-03T19:46:53;28.50;81.70
45108;DHT22;30869;51.188;6.556;2022-08-03T19:49:35;28.30;81.60
45108;DHT22;30869;51.188;6.556;2022-08-03T19:52:16;28.40;82.50
45108;DHT22;30869;51.188;6.556;2022-08-03T19:54:57;28.20;81.00
45108;DHT22;30869;51.188;6.556;2022-08-03T19:57:48;28.30;83.00
45108;DHT22;30869;51.188;6.556;2022-08-03T20:00:23;28.40;83.10
45108;DHT22;30869;51.188;6.556;2022-08-03T20:03:09;28.40;83.00
45108;DHT22;30869;51.188;6.556;2022-08-03T20:05:46;28.10;81.20
45108;DHT22;30869;51.188;6.556;2022-08-03T20:08:39;27.90;82.70
45108;DHT22;30869;51.188;6.556;2022-08-03T20:11:44;28.00;84.60
45108;DHT22;30869;51.188;6.556;2022-08-03T20:14:39;28.30;84.60
45108;DHT22;30869;51.188;6.556;2022-08-03T20:17:45;28.10;84.20
45108;DHT22;30869;51.188;6.556;2022-08-03T20:20:21;28.20;81.60
45108;DHT22;30869;51.188;6.556;2022-08-03T20:22:53;28.10;84.20
45108;DHT22;30869;51.188;6.556;2022-08-03T20:25:32;28.00;85.30
45108;DHT22;30869;51.188;6.556;2022-08-03T20:28:13;28.00;85.40
45108;DHT22;30869;51.188;6.556;2022-08-03T20:30:54;28.10;85.30
45108;DHT22;30869;51.188;6.556;2022-08-03T20:33:24;28.20;85.30
45108;DHT22;30869;51.188;6.556;2022-08-03T20:36:13;28.20;84.10
45108;DHT22;30869;51.188;6.556;2022-08-03T20:38:41;28.20;85.60
45108;DHT22;30869;51.188;6.556;2022-08-03T20:41:30;28.10;84.60
45108;DHT22;30869;51.188;6.556;2022-08-03T20:44:13;28.00;85.80
45108;DHT22;30869;51.188;6.556;2022-08-03T20:46:41;27.90;86.50
45108;DHT22;30869;51.188;6.556;2022-08-03T20:49:26;28.00;86.50
45108;DHT22;30869;51.188;6.556;2022-08-03T20:51:55;28.00;86.60
45108;DHT22;30869;51.188;6.556;2022-08-03T20:54:27;27.90;86.70
45108;DHT22;30869;51.188;6.556;2022-08-03T20:57:00;27.80;86.70
45108;DHT22;30869;51.188;6.556;2022-08-03T20:59:36;28.00;86.80
45108;DHT22;30869;51.188;6.556;2022-08-03T21:02:09;28.10;86.80
45108;DHT22;30869;51.188;6.556;2022-08-03T21:04:41;28.10;86.70
45108;DHT22;30869;51.188;6.556;2022-08-03T21:07:40;28.20;86.80
45108;DHT22;30869;51.188;6.556;2022-08-03T21:10:07;28.20;86.90
45108;DHT22;30869;51.188;6.556;2022-08-03T21:13:17;28.30;86.60
45108;DHT22;30869;51.188;6.556;2022-08-03T21:15:51;28.30;86.40
45108;DHT22;30869;51.188;6.556;2022-08-03T21:18:22;28.30;86.30
45108;DHT22;30869;51.188;6.556;2022-08-03T21:20:54;28.30;86.40
45108;DHT22;30869;51.188;6.556;2022-08-03T21:23:24;28.40;86.30
45108;DHT22;30869;51.188;6.556;2022-08-03T21:25:53;28.40;86.40
45108;DHT22;30869;51.188;6.556;2022-08-03T21:28:46;28.30;86.60
45108;DHT22;30869;51.188;6.556;2022-08-03T21:31:22;28.30;86.70
45108;DHT22;30869;51.188;6.556;2022-08-03T21:34:00;28.30;86.80
45108;DHT22;30869;51.188;6.556;2022-08-03T21:36:38;28.30;86.90
45108;DHT22;30869;51.188;6.556;2022-08-03T21:39:18;28.40;86.90
45108;DHT22;30869;51.188;6.556;2022-08-03T21:41:50;28.30;86.90
45108;DHT22;30869;51.188;6.556;2022-08-03T21:44:21;28.50;87.10
45108;DHT22;30869;51.188;6.556;2022-08-03T21:46:59;28.30;87.10
45108;DHT22;30869;51.188;6.556;2022-08-03T21:49:31;28.40;87.30
45108;DHT22;30869;51.188;6.556;2022-08-03T21:52:07;28.30;87.30
45108;DHT22;30869;51.188;6.556;2022-08-03T21:54:42;28.30;87.30
45108;DHT22;30869;51.188;6.556;2022-08-03T21:57:17;28.30;87.40
45108;DHT22;30869;51.188;6.556;2022-08-03T22:00:14;28.30;87.50
45108;DHT22;30869;51.188;6.556;2022-08-03T22:03:07;28.30;87.60
45108;DHT22;30869;51.188;6.556;2022-08-03T22:05:39;28.20;87.50
